Terminal Aerodrome Forecast
Issued by NWS

Home | Current Version | Previous Version | Graphics & Text | Print | Product List | Glossary On
Versions: 1 2 3 4 5 6 7 8 9 10 11 12 13
000
FTUS45 KGGW 231137
TAFGDV
TAF
KGDV 231137Z 2312/2412 VRB06KT P6SM SKC
     FM232300 13006KT P6SM FEW220
     FM240800 17007KT P6SM SCT150=

USA.gov is the U.S. government's official web portal to all federal, state and local government web resources and services.